Time;durP1;ratioP1;P1;durP2;ratioP2;P2;SDS_P1;SDS_P2;PMS_P1;PMS_P2;Temp;Humidity;BMP_temperature;BMP_pressure;BME280_temperature;BME280_humidity;BME280_pressure;Samples;Min_cycle;Max_cycle;Signal;HPM_P1;HPM_P2
2022/10/11 00:00:36;;;;;;;8.02;2.05;;;6.00;99.90;;;;;;5106298;28;20070;-66
2022/10/11 00:03:03;;;;;;;26.05;7.95;;;6.00;99.90;;;;;;5107449;28;20046;-66
2022/10/11 00:05:28;;;;;;;20.50;7.47;;;6.00;99.90;;;;;;5108316;28;20408;-66
2022/10/11 00:07:54;;;;;;;20.83;9.75;;;6.00;99.90;;;;;;5100707;28;20044;-66
2022/10/11 00:10:20;;;;;;;7.70;3.00;;;6.00;99.90;;;;;;5092828;28;20472;-66
2022/10/11 00:12:46;;;;;;;40.10;9.13;;;6.00;99.90;;;;;;5099122;28;20524;-66
2022/10/11 00:15:15;;;;;;;6.45;2.92;;;6.00;99.90;;;;;;5101600;28;20087;-66
2022/10/11 00:17:41;;;;;;;20.95;7.65;;;5.90;99.90;;;;;;5104001;28;20075;-66
2022/10/11 00:20:07;;;;;;;32.50;3.92;;;6.00;99.90;;;;;;5092333;28;20198;-66
2022/10/11 00:22:34;;;;;;;4.07;1.85;;;5.90;99.90;;;;;;5090388;28;20087;-66
2022/10/11 00:25:01;;;;;;;6.47;3.15;;;5.80;99.90;;;;;;5105766;28;20100;-66
2022/10/11 00:27:27;;;;;;;18.52;7.40;;;5.90;99.90;;;;;;5098645;28;20123;-66
2022/10/11 00:29:52;;;;;;;8.75;2.63;;;5.90;99.90;;;;;;5104938;28;20118;-66
2022/10/11 00:32:18;;;;;;;6.55;2.00;;;5.90;99.90;;;;;;5104115;28;20412;-66
2022/10/11 00:34:44;;;;;;;3.67;2.85;;;5.80;99.90;;;;;;5102669;28;20040;-66
2022/10/11 00:37:10;;;;;;;4.90;4.45;;;6.10;99.90;;;;;;5107872;28;20040;-66
2022/10/11 00:39:36;;;;;;;20.38;6.93;;;6.10;99.90;;;;;;5108243;28;20043;-66
2022/10/11 00:42:02;;;;;;;8.30;4.55;;;5.70;99.90;;;;;;5099987;28;20479;-66
2022/10/11 00:44:28;;;;;;;20.63;5.93;;;5.80;99.90;;;;;;5108692;28;20409;-66
2022/10/11 00:46:59;;;;;;;16.35;7.28;;;5.70;99.90;;;;;;5108250;28;20036;-66
2022/10/11 00:49:58;;;;;;;23.77;7.68;;;5.80;99.90;;;;;;5104342;28;20044;-65
2022/10/11 00:52:33;;;;;;;7.40;2.85;;;5.80;99.90;;;;;;5090585;28;20063;-66
2022/10/11 00:55:11;;;;;;;7.22;2.53;;;5.80;99.90;;;;;;5088010;28;20048;-65
2022/10/11 00:57:41;;;;;;;27.13;7.90;;;5.70;99.90;;;;;;5093239;28;20050;-66
2022/10/11 01:00:10;;;;;;;7.53;3.10;;;5.80;99.90;;;;;;5107867;28;20039;-66
2022/10/11 01:02:35;;;;;;;37.40;7.82;;;5.80;99.90;;;;;;5106723;28;20052;-66
2022/10/11 01:05:04;;;;;;;4.53;2.38;;;5.70;99.90;;;;;;5106541;28;20117;-66
2022/10/11 01:07:30;;;;;;;4.70;2.25;;;5.70;99.90;;;;;;5103403;28;20531;-66
2022/10/11 01:09:57;;;;;;;3.03;1.98;;;5.70;99.90;;;;;;5107427;28;20043;-66
2022/10/11 01:12:25;;;;;;;22.38;6.65;;;5.70;99.90;;;;;;5098875;28;20047;-66
2022/10/11 01:14:59;;;;;;;24.67;7.20;;;5.70;99.90;;;;;;5101794;28;20055;-66
2022/10/11 01:17:43;;;;;;;3.95;2.40;;;5.70;99.90;;;;;;5092865;28;20461;-66
2022/10/11 01:20:29;;;;;;;27.42;7.63;;;5.70;99.90;;;;;;5104780;28;20052;-66
2022/10/11 01:23:29;;;;;;;5.15;2.72;;;5.70;99.90;;;;;;5100697;28;20439;-66
2022/10/11 01:26:22;;;;;;;15.43;6.45;;;5.60;99.90;;;;;;5102339;28;20412;-66
2022/10/11 01:29:06;;;;;;;4.30;2.88;;;5.70;99.90;;;;;;5107651;28;20044;-66
2022/10/11 01:32:02;;;;;;;24.38;6.68;;;5.60;99.90;;;;;;5108933;28;20082;-66
2022/10/11 01:34:38;;;;;;;3.25;1.63;;;5.60;99.90;;;;;;5103700;28;20051;-66
2022/10/11 01:37:11;;;;;;;10.73;3.03;;;5.60;99.90;;;;;;5110458;28;20496;-66
2022/10/11 01:39:48;;;;;;;3.65;2.63;;;5.60;99.90;;;;;;5097591;28;20052;-66
2022/10/11 01:42:16;;;;;;;13.90;2.55;;;5.50;99.90;;;;;;5103563;28;20467;-66
2022/10/11 01:44:45;;;;;;;4.93;2.13;;;5.50;99.90;;;;;;5110571;28;20055;-66
2022/10/11 01:47:11;;;;;;;1.55;1.40;;;5.50;99.90;;;;;;5111297;28;20079;-66
2022/10/11 01:49:37;;;;;;;14.52;3.80;;;5.50;99.90;;;;;;5105764;28;20071;-66
2022/10/11 01:52:05;;;;;;;15.10;5.47;;;5.50;99.90;;;;;;5110722;28;20100;-66
2022/10/11 01:55:01;;;;;;;2.70;1.40;;;5.50;99.90;;;;;;5110710;28;20397;-66
2022/10/11 01:57:29;;;;;;;5.13;2.47;;;5.50;99.90;;;;;;5107521;28;20082;-66
2022/10/11 02:00:02;;;;;;;;;;;5.50;99.90;;;;;;5111166;28;20063;-66
2022/10/11 02:02:51;;;;;;;5.05;2.42;;;5.40;99.90;;;;;;5107349;28;19920;-66
2022/10/11 02:05:21;;;;;;;3.53;3.22;;;5.40;99.90;;;;;;5096835;28;20046;-66
2022/10/11 02:07:54;;;;;;;12.18;1.55;;;5.40;99.90;;;;;;5110447;27;20493;-66
2022/10/11 02:10:22;;;;;;;27.25;6.20;;;5.40;99.90;;;;;;5111378;28;20058;-66
2022/10/11 02:12:56;;;;;;;20.10;6.10;;;5.40;99.90;;;;;;5103223;28;20152;-66
2022/10/11 02:15:25;;;;;;;2.47;1.20;;;5.40;99.90;;;;;;5104694;28;20051;-67
2022/10/11 02:17:54;;;;;;;8.40;1.92;;;5.40;99.90;;;;;;5108974;28;20044;-66
2022/10/11 02:20:23;;;;;;;19.95;6.95;;;5.40;99.90;;;;;;5104034;28;20194;-66
2022/10/11 02:23:01;;;;;;;6.25;2.17;;;5.40;99.90;;;;;;5098178;28;20052;-66
2022/10/11 02:25:29;;;;;;;4.93;1.73;;;5.40;99.90;;;;;;5103620;28;20058;-66
2022/10/11 02:27:59;;;;;;;6.53;2.53;;;5.40;99.90;;;;;;5097088;28;20284;-66
2022/10/11 02:30:25;;;;;;;16.77;5.80;;;5.30;99.90;;;;;;5106655;28;20047;-66
2022/10/11 02:32:53;;;;;;;6.28;2.55;;;5.40;99.90;;;;;;5110215;28;20036;-66
2022/10/11 02:35:24;;;;;;;1.85;1.30;;;5.40;99.90;;;;;;5111326;28;20047;-66
2022/10/11 02:38:04;;;;;;;22.55;6.78;;;5.30;99.90;;;;;;5105430;28;20043;-66
2022/10/11 02:40:31;;;;;;;6.68;1.83;;;5.30;99.90;;;;;;5105979;28;20071;-66
2022/10/11 02:43:18;;;;;;;6.45;5.55;;;5.30;99.90;;;;;;5098877;28;20048;-66
2022/10/11 02:45:51;;;;;;;15.90;6.10;;;5.30;99.90;;;;;;5105162;28;20507;-66
2022/10/11 02:48:17;;;;;;;2.72;1.27;;;5.30;99.90;;;;;;5110902;28;20042;-66
2022/10/11 02:50:43;;;;;;;13.15;2.17;;;5.30;99.90;;;;;;5109206;28;20498;-66
2022/10/11 02:53:09;;;;;;;11.85;2.13;;;5.30;99.90;;;;;;5109216;28;20176;-66
2022/10/11 02:55:35;;;;;;;11.93;3.80;;;5.30;99.90;;;;;;5098888;28;20138;-66
2022/10/11 02:58:01;;;;;;;13.98;5.13;;;5.30;99.90;;;;;;5093787;28;20169;-66
2022/10/11 03:00:28;;;;;;;3.22;2.65;;;5.20;99.90;;;;;;5098686;28;20039;-66
2022/10/11 03:02:53;;;;;;;28.55;5.88;;;5.30;99.90;;;;;;5107014;27;20043;-66
2022/10/11 03:05:19;;;;;;;7.38;1.25;;;5.30;99.90;;;;;;5109713;28;20070;-66
2022/10/11 03:07:45;;;;;;;53.95;4.97;;;5.30;99.90;;;;;;5109404;28;20077;-66
2022/10/11 03:10:11;;;;;;;7.40;2.85;;;5.20;99.90;;;;;;5109343;28;20108;-66
2022/10/11 03:12:36;;;;;;;15.00;5.40;;;5.20;99.90;;;;;;5098178;28;20090;-66
2022/10/11 03:15:02;;;;;;;4.22;2.85;;;5.20;99.90;;;;;;5098698;28;20699;-66
2022/10/11 03:17:28;;;;;;;14.35;6.00;;;5.20;99.90;;;;;;5096529;28;20042;-66
2022/10/11 03:19:54;;;;;;;3.10;1.80;;;5.20;99.90;;;;;;5102658;28;20043;-66
2022/10/11 03:22:19;;;;;;;10.43;2.13;;;5.20;99.90;;;;;;5088724;28;20420;-66
2022/10/11 03:24:45;;;;;;;14.10;4.93;;;5.10;99.90;;;;;;5101904;28;20046;-66
2022/10/11 03:27:11;;;;;;;6.28;2.08;;;5.20;99.90;;;;;;5105171;28;20043;-66
2022/10/11 03:29:37;;;;;;;4.40;1.50;;;5.10;99.90;;;;;;5101542;28;20065;-67
2022/10/11 03:32:02;;;;;;;23.05;5.20;;;5.10;99.90;;;;;;5109604;28;20044;-66
2022/10/11 03:34:28;;;;;;;1.50;1.10;;;5.10;99.90;;;;;;5108170;28;20496;-66
2022/10/11 03:36:54;;;;;;;4.20;1.45;;;5.10;99.90;;;;;;5108602;28;20155;-66
2022/10/11 03:39:19;;;;;;;11.63;1.38;;;5.10;99.90;;;;;;5108184;28;20075;-66
2022/10/11 03:41:45;;;;;;;2.63;1.23;;;5.00;99.90;;;;;;5106704;28;20489;-66
2022/10/11 03:44:11;;;;;;;5.20;2.55;;;5.00;99.90;;;;;;5092929;28;20040;-66
2022/10/11 03:46:36;;;;;;;27.80;5.18;;;4.90;99.90;;;;;;5093014;28;20055;-66
2022/10/11 03:49:02;;;;;;;2.85;1.48;;;4.90;99.90;;;;;;5105009;28;20036;-66
2022/10/11 03:51:28;;;;;;;2.33;1.35;;;4.90;99.90;;;;;;5096417;28;20131;-66
2022/10/11 03:53:54;;;;;;;0.90;0.90;;;5.00;99.90;;;;;;5102761;28;20061;-66
2022/10/11 03:56:19;;;;;;;18.70;4.43;;;4.90;99.90;;;;;;5090905;28;20178;-66
2022/10/11 03:58:45;;;;;;;5.05;1.85;;;4.90;99.90;;;;;;5091434;28;20404;-66
2022/10/11 04:01:11;;;;;;;9.65;4.03;;;4.90;99.90;;;;;;5105096;28;20067;-66
2022/10/11 04:03:36;;;;;;;23.02;5.55;;;4.90;99.90;;;;;;5088630;28;20089;-66
2022/10/11 04:06:02;;;;;;;2.50;0.95;;;4.90;99.90;;;;;;5106523;28;20043;-66
2022/10/11 04:08:28;;;;;;;1.70;1.27;;;4.80;99.90;;;;;;5100749;28;20069;-66
2022/10/11 04:10:53;;;;;;;4.88;2.08;;;4.80;99.90;;;;;;5108037;28;20039;-66
2022/10/11 04:13:19;;;;;;;4.97;1.08;;;4.80;99.90;;;;;;5099276;28;20035;-66
2022/10/11 04:15:46;;;;;;;14.07;5.25;;;4.80;99.90;;;;;;5104811;28;20044;-66
2022/10/11 04:18:11;;;;;;;18.75;5.70;;;4.70;99.90;;;;;;5088217;28;20044;-66
2022/10/11 04:20:37;;;;;;;3.35;1.52;;;4.80;99.90;;;;;;5097222;28;20051;-66
2022/10/11 04:23:03;;;;;;;4.50;1.80;;;4.80;99.90;;;;;;5092139;28;20081;-66
2022/10/11 04:25:28;;;;;;;15.68;5.15;;;4.70;99.90;;;;;;5095469;28;20087;-66
2022/10/11 04:27:54;;;;;;;1.45;1.35;;;4.80;99.90;;;;;;5099114;28;20047;-66
2022/10/11 04:30:20;;;;;;;2.90;1.10;;;4.80;99.90;;;;;;5108334;28;20044;-66
2022/10/11 04:32:46;;;;;;;2.80;1.45;;;4.70;99.90;;;;;;5108291;28;20047;-66
2022/10/11 04:35:13;;;;;;;12.10;4.82;;;4.60;99.90;;;;;;5107630;28;20491;-66
2022/10/11 04:37:38;;;;;;;2.70;1.33;;;4.70;99.90;;;;;;5107134;28;20042;-66
2022/10/11 04:40:06;;;;;;;2.78;1.30;;;4.70;99.90;;;;;;5105190;28;20036;-67
2022/10/11 04:42:31;;;;;;;14.63;4.40;;;4.70;99.90;;;;;;5103275;28;20047;-66
2022/10/11 04:44:57;;;;;;;2.50;1.15;;;4.70;99.90;;;;;;5105541;28;20047;-66
2022/10/11 04:47:23;;;;;;;2.75;1.48;;;4.70;99.90;;;;;;5106228;28;20086;-66
2022/10/11 04:49:48;;;;;;;2.00;0.80;;;4.70;99.90;;;;;;5102413;28;20446;-66
2022/10/11 04:52:14;;;;;;;5.78;2.42;;;4.70;99.90;;;;;;5099927;27;20437;-66
2022/10/11 04:54:40;;;;;;;10.13;4.50;;;4.70;99.90;;;;;;5103316;28;20047;-66
2022/10/11 04:57:05;;;;;;;2.95;1.20;;;4.70;99.90;;;;;;5108873;27;20051;-66
2022/10/11 04:59:31;;;;;;;16.77;5.63;;;4.70;99.90;;;;;;5114826;27;20242;-66
2022/10/11 05:01:57;;;;;;;1.00;0.82;;;4.80;99.90;;;;;;5113962;28;20165;-66
2022/10/11 05:04:22;;;;;;;3.47;2.55;;;4.80;99.90;;;;;;5109398;27;20408;-66
2022/10/11 05:06:48;;;;;;;2.67;1.90;;;4.80;99.90;;;;;;5107752;27;20569;-66
2022/10/11 05:09:14;;;;;;;15.93;3.00;;;4.80;99.90;;;;;;5100885;28;20032;-66
2022/10/11 05:11:40;;;;;;;17.50;5.47;;;4.80;99.90;;;;;;5113449;27;20890;-66
2022/10/11 05:14:06;;;;;;;5.50;1.25;;;4.90;99.90;;;;;;5112399;28;20397;-66
2022/10/11 05:16:31;;;;;;;3.45;3.08;;;4.90;99.90;;;;;;5102803;27;20050;-66
2022/10/11 05:18:57;;;;;;;11.95;2.03;;;4.90;99.90;;;;;;5112324;27;20042;-66
2022/10/11 05:21:25;;;;;;;3.30;1.23;;;4.80;99.90;;;;;;5112870;27;20050;-66
2022/10/11 05:23:54;;;;;;;19.00;6.22;;;4.90;99.90;;;;;;5114042;27;20043;-66
2022/10/11 05:26:19;;;;;;;;;;;4.90;99.90;;;;;;5107622;28;20079;-66
2022/10/11 05:28:45;;;;;;;6.45;2.20;;;4.80;99.90;;;;;;5114031;27;20300;-66
2022/10/11 05:31:11;;;;;;;18.45;5.63;;;4.80;99.90;;;;;;5101996;28;20140;-66
2022/10/11 05:33:37;;;;;;;20.02;6.00;;;4.90;99.90;;;;;;5113542;28;20634;-66
2022/10/11 05:36:04;;;;;;;8.07;2.67;;;4.90;99.90;;;;;;5107846;27;20044;-66
2022/10/11 05:38:30;;;;;;;34.55;5.97;;;4.90;99.90;;;;;;5099705;27;20599;-66
2022/10/11 05:41:00;;;;;;;5.88;1.63;;;4.90;99.90;;;;;;5108364;28;20043;-66
2022/10/11 05:43:27;;;;;;;2.63;1.52;;;4.90;99.90;;;;;;5107195;28;20050;-66
2022/10/11 05:45:52;;;;;;;7.13;1.85;;;4.90;99.90;;;;;;5112354;27;20036;-66
2022/10/11 05:48:18;;;;;;;1.50;1.20;;;4.90;99.90;;;;;;5111278;27;20443;-66
2022/10/11 05:50:44;;;;;;;3.58;1.90;;;4.90;99.90;;;;;;5111153;28;20062;-66
2022/10/11 05:53:10;;;;;;;1.33;0.77;;;4.90;99.90;;;;;;5108846;28;20077;-67
2022/10/11 05:55:37;;;;;;;1.75;1.52;;;4.90;99.90;;;;;;5109136;27;20043;-66
2022/10/11 05:58:03;;;;;;;21.35;6.55;;;4.90;99.90;;;;;;5106297;28;20401;-66
2022/10/11 06:00:28;;;;;;;3.97;2.42;;;4.90;99.90;;;;;;5109338;28;20046;-66
2022/10/11 06:02:54;;;;;;;15.00;3.42;;;5.00;99.90;;;;;;5107241;28;20122;-66
2022/10/11 06:05:19;;;;;;;4.22;1.85;;;5.00;99.90;;;;;;5111351;28;20043;-66
2022/10/11 06:07:46;;;;;;;18.60;6.03;;;5.00;99.90;;;;;;5108702;28;20051;-66
2022/10/11 06:10:12;;;;;;;8.35;2.95;;;5.10;99.90;;;;;;5090788;28;20279;-66
2022/10/11 06:12:37;;;;;;;3.15;1.92;;;5.00;99.90;;;;;;5103475;28;20519;-66
2022/10/11 06:15:05;;;;;;;21.63;6.35;;;5.00;99.90;;;;;;5104574;28;20044;-66
2022/10/11 06:17:30;;;;;;;4.53;1.75;;;5.10;99.90;;;;;;5097891;28;20052;-66
2022/10/11 06:19:56;;;;;;;11.57;3.05;;;5.10;99.90;;;;;;5097584;28;20519;-66
2022/10/11 06:22:22;;;;;;;13.73;7.22;;;5.10;99.90;;;;;;5098602;28;20834;-66
2022/10/11 06:24:47;;;;;;;5.50;1.95;;;5.10;99.90;;;;;;5098141;28;20067;-66
2022/10/11 06:27:13;;;;;;;24.02;7.30;;;5.20;99.90;;;;;;5098346;28;20047;-66
2022/10/11 06:29:39;;;;;;;3.28;1.50;;;5.30;99.90;;;;;;5102467;28;20040;-66
2022/10/11 06:32:05;;;;;;;3.35;1.92;;;5.40;99.90;;;;;;5090635;28;20051;-66
2022/10/11 06:34:31;;;;;;;4.32;2.55;;;5.40;99.90;;;;;;5100679;28;20044;-66
2022/10/11 06:36:57;;;;;;;6.68;2.65;;;5.50;99.90;;;;;;5094132;28;20409;-66
2022/10/11 06:39:22;;;;;;;5.43;2.90;;;5.50;99.90;;;;;;5109741;28;20146;-66
2022/10/11 06:41:48;;;;;;;15.95;7.43;;;5.60;99.90;;;;;;5100194;28;20123;-66
2022/10/11 06:44:15;;;;;;;16.42;3.28;;;5.60;99.90;;;;;;5091943;28;20086;-66
2022/10/11 06:46:41;;;;;;;7.65;2.63;;;5.70;99.90;;;;;;5097776;28;20439;-66
2022/10/11 06:49:07;;;;;;;23.05;7.75;;;5.70;99.90;;;;;;5095048;28;20039;-66
2022/10/11 06:51:34;;;;;;;8.68;2.00;;;5.80;99.90;;;;;;5100774;28;20043;-66
2022/10/11 06:54:00;;;;;;;13.38;3.67;;;5.80;99.90;;;;;;5101402;28;20454;-66
2022/10/11 06:56:27;;;;;;;14.68;2.42;;;5.80;99.90;;;;;;5098929;28;20036;-66
2022/10/11 06:58:54;;;;;;;25.92;8.52;;;5.80;99.90;;;;;;5102184;28;20040;-66
2022/10/11 07:01:22;;;;;;;21.88;8.02;;;5.90;99.90;;;;;;5106010;28;20404;-66
2022/10/11 07:03:49;;;;;;;5.22;2.60;;;6.00;99.90;;;;;;5109525;28;20085;-66
2022/10/11 07:06:21;;;;;;;27.52;10.02;;;6.00;99.90;;;;;;5110015;28;20035;-66
2022/10/11 07:08:47;;;;;;;6.40;3.45;;;6.00;99.90;;;;;;5101045;28;20053;-66
2022/10/11 07:11:16;;;;;;;31.67;10.65;;;6.10;99.90;;;;;;5097589;28;20075;-66
2022/10/11 07:13:42;;;;;;;5.78;2.92;;;6.10;99.90;;;;;;5103765;28;20043;-66
2022/10/11 07:16:11;;;;;;;21.92;8.25;;;6.10;99.90;;;;;;5108132;28;20043;-66
2022/10/11 07:18:37;;;;;;;9.77;3.05;;;6.10;99.90;;;;;;5106073;28;20036;-66
2022/10/11 07:21:05;;;;;;;21.55;8.77;;;6.20;99.90;;;;;;5098656;28;20061;-66
2022/10/11 07:23:32;;;;;;;3.55;2.25;;;6.20;99.90;;;;;;5107726;28;20043;-66
2022/10/11 07:25:58;;;;;;;18.63;9.00;;;6.30;99.90;;;;;;5102849;27;20104;-67
2022/10/11 07:28:24;;;;;;;18.08;4.97;;;6.40;99.90;;;;;;5099951;27;20047;-66
2022/10/11 07:30:50;;;;;;;4.30;2.38;;;6.40;99.90;;;;;;5107189;28;20083;-66
2022/10/11 07:33:16;;;;;;;2.55;2.30;;;6.40;99.90;;;;;;5097106;28;20078;-67
2022/10/11 07:35:42;;;;;;;29.73;11.00;;;6.40;99.90;;;;;;5100294;28;20114;-66
2022/10/11 07:38:07;;;;;;;8.55;2.80;;;6.50;99.90;;;;;;5084982;28;20460;-66
2022/10/11 07:40:41;;;;;;;7.70;3.55;;;6.50;99.90;;;;;;5108301;28;20039;-67
2022/10/11 07:43:08;;;;;;;17.85;8.43;;;6.50;99.90;;;;;;5104759;28;20039;-66
2022/10/11 07:45:36;;;;;;;5.82;1.98;;;6.60;99.90;;;;;;5104885;28;20043;-66
2022/10/11 07:48:02;;;;;;;;;;;6.70;99.90;;;;;;5109636;28;20071;-66
2022/10/11 07:50:28;;;;;;;23.27;10.65;;;6.80;99.90;;;;;;5099808;28;20380;-67
2022/10/11 07:52:53;;;;;;;5.78;2.75;;;6.90;99.90;;;;;;5102312;28;20047;-67
2022/10/11 07:55:19;;;;;;;26.77;9.20;;;7.00;99.90;;;;;;5096700;28;20055;-67
2022/10/11 07:57:44;;;;;;;13.73;4.80;;;7.00;99.90;;;;;;5102207;28;20042;-67
2022/10/11 08:00:11;;;;;;;15.85;3.67;;;7.10;99.90;;;;;;5101533;27;20044;-67
2022/10/11 08:02:36;;;;;;;5.40;2.92;;;7.10;99.90;;;;;;5089432;28;20130;-67
2022/10/11 08:05:03;;;;;;;26.55;10.23;;;7.20;99.90;;;;;;5093740;28;20618;-67
2022/10/11 08:07:28;;;;;;;37.22;11.80;;;7.30;99.90;;;;;;5103829;28;20156;-67
2022/10/11 08:09:55;;;;;;;13.32;3.67;;;7.40;99.90;;;;;;5093950;28;20047;-67
2022/10/11 08:12:20;;;;;;;14.98;3.70;;;7.50;99.90;;;;;;5092348;27;20493;-67
2022/10/11 08:14:46;;;;;;;31.60;10.20;;;7.60;99.90;;;;;;5103677;28;20048;-67
2022/10/11 08:17:13;;;;;;;3.47;2.38;;;7.60;99.90;;;;;;5101500;28;20588;-66
2022/10/11 08:19:38;;;;;;;23.45;4.45;;;7.70;99.90;;;;;;5107579;28;20413;-67
2022/10/11 08:22:04;;;;;;;35.80;10.70;;;7.80;99.90;;;;;;5108315;28;20103;-66
2022/10/11 08:24:30;;;;;;;5.97;3.17;;;7.90;99.90;;;;;;5100627;28;20058;-66
2022/10/11 08:26:55;;;;;;;30.92;10.13;;;8.00;99.90;;;;;;5106393;28;20084;-67
2022/10/11 08:29:21;;;;;;;32.28;11.80;;;8.00;99.90;;;;;;5093612;28;20040;-66
2022/10/11 08:31:47;;;;;;;10.07;3.70;;;8.20;99.90;;;;;;5096003;28;20105;-67
2022/10/11 08:34:12;;;;;;;28.13;9.50;;;8.30;99.90;;;;;;5102264;28;20078;-67
2022/10/11 08:36:38;;;;;;;17.05;4.50;;;8.30;99.90;;;;;;5104803;28;20047;-66
2022/10/11 08:39:05;;;;;;;29.48;10.88;;;8.50;99.90;;;;;;5105170;28;20039;-66
2022/10/11 08:41:42;;;;;;;20.73;9.45;;;8.50;99.90;;;;;;5106751;28;20048;-66
2022/10/11 08:44:36;;;;;;;29.65;9.73;;;8.70;99.90;;;;;;5106140;28;20044;-66
2022/10/11 08:47:26;;;;;;;29.50;8.85;;;8.90;99.90;;;;;;5106981;28;20061;-66
2022/10/11 08:49:53;;;;;;;7.90;3.63;;;9.20;99.90;;;;;;5089070;28;20052;-66
2022/10/11 08:52:23;;;;;;;25.05;9.25;;;9.30;99.90;;;;;;5102790;28;20047;-67
2022/10/11 08:54:54;;;;;;;32.78;10.23;;;9.40;99.90;;;;;;5090111;28;20059;-66
2022/10/11 08:57:23;;;;;;;22.58;9.18;;;9.50;99.90;;;;;;5102343;28;20255;-67
2022/10/11 08:59:58;;;;;;;37.17;8.60;;;9.80;99.90;;;;;;5106683;28;20067;-67
2022/10/11 09:02:24;;;;;;;23.23;10.07;;;10.00;99.90;;;;;;5107763;28;20051;-67
2022/10/11 09:04:53;;;;;;;22.27;8.45;;;10.20;99.90;;;;;;5103295;28;20400;-67
2022/10/11 09:07:36;;;;;;;20.58;8.23;;;10.40;99.90;;;;;;5088176;28;20493;-67
2022/10/11 09:10:20;;;;;;;31.83;8.23;;;10.70;99.90;;;;;;5103209;28;20105;-67
2022/10/11 09:13:04;;;;;;;28.25;8.32;;;10.90;99.90;;;;;;5103323;28;20558;-67
2022/10/11 09:15:49;;;;;;;22.63;6.88;;;11.10;99.90;;;;;;5097200;28;20054;-67
2022/10/11 09:18:27;;;;;;;42.22;7.90;;;11.40;99.90;;;;;;5107827;28;20071;-67
2022/10/11 09:21:07;;;;;;;14.75;7.07;;;11.70;99.90;;;;;;5096479;28;20526;-67
2022/10/11 09:23:52;;;;;;;26.65;6.22;;;11.70;99.90;;;;;;5106177;28;20105;-67
2022/10/11 09:26:34;;;;;;;17.75;5.68;;;11.90;99.90;;;;;;5093355;28;20043;-67
2022/10/11 09:29:09;;;;;;;23.92;7.07;;;12.20;99.90;;;;;;5095677;28;20527;-67
2022/10/11 09:31:35;;;;;;;20.98;6.40;;;12.40;99.90;;;;;;5105820;28;20396;-67
2022/10/11 09:34:10;;;;;;;13.75;5.57;;;12.50;99.90;;;;;;5107044;28;20048;-67
2022/10/11 09:36:55;;;;;;;28.60;6.30;;;12.70;99.90;;;;;;5110169;28;20407;-67
2022/10/11 09:39:31;;;;;;;22.05;6.85;;;12.90;99.90;;;;;;5097177;28;20040;-67
2022/10/11 09:42:07;;;;;;;22.00;6.70;;;13.00;99.90;;;;;;5104685;28;20055;-67
2022/10/11 09:44:45;;;;;;;19.15;5.90;;;13.20;99.90;;;;;;5110663;28;20457;-67
2022/10/11 09:47:19;;;;;;;18.73;5.88;;;13.30;99.90;;;;;;5093132;28;20044;-68
2022/10/11 09:49:58;;;;;;;20.98;5.78;;;13.50;99.90;;;;;;5108805;28;20042;-67
2022/10/11 09:52:24;;;;;;;20.17;6.03;;;13.60;99.90;;;;;;5109206;28;20126;-67
2022/10/11 09:54:54;;;;;;;15.48;4.18;;;13.60;99.90;;;;;;5103038;28;20115;-67
2022/10/11 09:57:34;;;;;;;26.92;6.30;;;13.70;99.90;;;;;;5095232;28;20568;-67
2022/10/11 10:00:19;;;;;;;21.52;5.90;;;13.90;99.90;;;;;;5104762;28;20146;-67
2022/10/11 10:03:00;;;;;;;26.58;6.55;;;13.90;99.90;;;;;;5106826;28;20047;-67
2022/10/11 10:05:28;;;;;;;15.30;5.10;;;14.10;99.90;;;;;;5098512;28;20553;-67
2022/10/11 10:08:09;;;;;;;23.38;5.90;;;14.10;99.90;;;;;;5107557;28;20055;-67
2022/10/11 10:10:39;;;;;;;25.52;6.70;;;14.30;99.90;;;;;;5103990;28;20043;-67
2022/10/11 10:13:19;;;;;;;20.48;4.93;;;14.50;99.90;;;;;;5099040;28;20088;-67
2022/10/11 10:15:48;;;;;;;20.80;5.00;;;14.50;99.90;;;;;;5106017;27;20081;-67
2022/10/11 10:18:22;;;;;;;;;;;14.80;99.90;;;;;;5078383;28;20097;-67
2022/10/11 10:20:58;;;;;;;27.45;4.68;;;14.90;99.90;;;;;;5108844;28;19920;-67
2022/10/11 10:23:36;;;;;;;16.38;5.25;;;14.90;99.90;;;;;;5110489;28;20056;-68
2022/10/11 10:26:30;;;;;;;15.68;5.88;;;15.20;99.90;;;;;;5111174;28;20067;-68
2022/10/11 10:29:07;;;;;;;14.90;5.22;;;15.20;99.90;;;;;;5110319;27;20048;-68
2022/10/11 10:31:35;;;;;;;18.02;5.45;;;15.30;99.90;;;;;;5106005;27;20461;-67
2022/10/11 10:34:03;;;;;;;14.52;4.28;;;15.30;99.90;;;;;;5107992;27;20036;-67
2022/10/11 10:36:34;;;;;;;19.88;4.97;;;15.40;99.90;;;;;;5098980;28;20048;-68
2022/10/11 10:39:26;;;;;;;12.63;4.72;;;15.50;99.90;;;;;;5107851;28;20381;-67
2022/10/11 10:41:51;;;;;;;22.00;5.03;;;15.60;99.90;;;;;;5094217;28;20048;-67
2022/10/11 10:44:18;;;;;;;23.17;5.70;;;15.70;99.90;;;;;;5095500;28;20047;-67
2022/10/11 10:46:52;;;;;;;20.20;4.65;;;15.90;99.90;;;;;;5099228;28;20917;-67
2022/10/11 10:49:20;;;;;;;16.77;4.88;;;16.00;99.90;;;;;;5095609;28;20039;-67
2022/10/11 10:51:56;;;;;;;22.40;6.53;;;15.90;99.90;;;;;;5091603;28;20412;-67
2022/10/11 10:54:25;;;;;;;24.10;5.03;;;16.10;99.90;;;;;;5107126;28;20106;-67
2022/10/11 10:57:03;;;;;;;25.80;4.93;;;16.00;99.90;;;;;;5110019;28;20043;-67
2022/10/11 10:59:41;;;;;;;;;;;16.10;99.90;;;;;;5108341;28;20088;-67
2022/10/11 11:02:19;;;;;;;;;;;16.20;99.90;;;;;;5101409;28;19919;-67
2022/10/11 11:05:02;;;;;;;20.35;4.47;;;16.20;99.90;;;;;;5103841;28;19972;-67
2022/10/11 11:07:43;;;;;;;19.63;5.53;;;16.40;99.90;;;;;;5098514;28;20052;-67
2022/10/11 11:10:15;;;;;;;25.58;6.18;;;16.30;99.90;;;;;;5102633;28;20136;-67
2022/10/11 11:13:03;;;;;;;14.98;4.25;;;16.50;99.90;;;;;;5094173;28;20405;-67
2022/10/11 11:15:53;;;;;;;18.25;4.78;;;16.60;99.90;;;;;;5098085;28;20499;-67
2022/10/11 11:18:56;;;;;;;18.13;5.68;;;16.70;99.90;;;;;;5108715;28;20047;-69
2022/10/11 11:21:49;;;;;;;22.02;4.45;;;16.70;99.90;;;;;;5089244;28;20168;-67
2022/10/11 11:24:46;;;;;;;14.45;5.13;;;16.40;99.90;;;;;;5094963;28;20170;-67
2022/10/11 11:27:27;;;;;;;30.60;6.43;;;16.50;99.90;;;;;;5102021;28;20055;-67
2022/10/11 11:30:05;;;;;;;16.15;4.47;;;16.70;99.90;;;;;;5108340;28;20085;-67
2022/10/11 11:32:45;;;;;;;19.33;4.82;;;16.80;99.90;;;;;;5098345;28;20446;-67
2022/10/11 11:35:17;;;;;;;14.30;3.83;;;17.00;99.90;;;;;;5109256;28;20043;-68
2022/10/11 11:37:45;;;;;;;20.80;3.63;;;17.10;99.90;;;;;;5091945;28;20050;-67
2022/10/11 11:40:30;;;;;;;14.88;4.43;;;17.30;99.90;;;;;;5108590;28;20086;-68
2022/10/11 11:43:03;;;;;;;18.52;5.05;;;17.30;99.90;;;;;;5095281;28;20496;-67
2022/10/11 11:45:38;;;;;;;9.43;4.00;;;17.30;99.90;;;;;;5082893;28;20074;-68
2022/10/11 11:48:18;;;;;;;15.10;3.78;;;17.10;99.90;;;;;;5107184;28;20055;-68
2022/10/11 11:51:03;;;;;;;11.15;3.28;;;16.90;99.90;;;;;;5106645;27;20059;-68
2022/10/11 11:54:08;;;;;;;29.60;4.28;;;16.70;99.90;;;;;;5095374;28;20050;-68
2022/10/11 11:57:06;;;;;;;47.25;7.20;;;16.60;99.90;;;;;;5096050;28;20175;-68
2022/10/11 12:00:05;;;;;;;15.00;3.45;;;16.40;99.90;;;;;;5102492;28;20048;-68
2022/10/11 12:03:01;;;;;;;22.02;5.50;;;16.20;99.90;;;;;;5103626;28;20036;-68
2022/10/11 12:05:30;;;;;;;27.40;4.47;;;16.10;99.90;;;;;;5107718;28;20043;-68
2022/10/11 12:08:02;;;;;;;22.60;5.03;;;16.10;99.90;;;;;;5101309;28;20497;-69
2022/10/11 12:10:51;;;;;;;18.80;4.32;;;16.30;99.90;;;;;;5107861;28;20492;-68
2022/10/11 12:13:20;;;;;;;14.57;4.25;;;16.40;99.90;;;;;;5088189;28;20461;-69
2022/10/11 12:16:09;;;;;;;15.95;3.80;;;16.50;99.90;;;;;;5102044;28;20044;-69
2022/10/11 12:18:51;;;;;;;19.73;5.07;;;16.60;99.90;;;;;;5094393;28;20073;-69
2022/10/11 12:21:42;;;;;;;17.40;3.58;;;16.60;99.90;;;;;;5098417;28;20800;-69
2022/10/11 12:24:23;;;;;;;19.50;4.45;;;16.70;99.90;;;;;;5097478;28;20116;-69
2022/10/11 12:26:58;;;;;;;28.25;5.75;;;16.70;99.90;;;;;;5097598;28;20100;-70
2022/10/11 12:29:47;;;;;;;13.45;4.63;;;16.70;99.90;;;;;;5091998;28;20044;-70
2022/10/11 12:32:33;;;;;;;17.98;4.93;;;16.70;99.90;;;;;;5097600;28;20131;-70
2022/10/11 12:35:47;;;;;;;19.05;3.83;;;16.70;99.90;;;;;;5099797;28;20051;-70
2022/10/11 12:38:22;;;;;;;29.55;6.82;;;16.70;99.90;;;;;;5094678;28;20898;-70
2022/10/11 12:40:53;;;;;;;20.20;4.93;;;16.80;99.90;;;;;;5107965;28;20071;-71
2022/10/11 12:43:18;;;;;;;17.08;4.70;;;16.90;99.90;;;;;;5109024;28;20050;-70
2022/10/11 12:45:46;;;;;;;12.88;3.63;;;17.00;99.90;;;;;;5107500;28;20044;-71
2022/10/11 12:48:12;;;;;;;;;;;16.90;99.90;;;;;;5098293;28;20043;-71
2022/10/11 12:50:44;;;;;;;18.02;5.05;;;16.80;99.90;;;;;;5102370;28;19927;-71
2022/10/11 12:53:56;;;;;;;16.92;4.30;;;17.00;99.90;;;;;;5106098;28;20076;-70
2022/10/11 12:56:36;;;;;;;26.73;5.18;;;16.80;99.90;;;;;;5106864;28;20051;-71
2022/10/11 12:59:05;;;;;;;18.42;4.57;;;16.70;99.90;;;;;;5107407;28;20048;-71
2022/10/11 13:01:35;;;;;;;22.48;4.40;;;16.60;99.90;;;;;;5093940;28;20100;-71
2022/10/11 13:04:10;;;;;;;26.30;5.22;;;16.60;99.90;;;;;;5099869;28;20052;-71
2022/10/11 13:06:48;;;;;;;13.02;4.05;;;16.50;99.90;;;;;;5093895;28;20051;-71
2022/10/11 13:09:17;;;;;;;;;;;16.60;99.90;;;;;;5101024;28;20494;-71
2022/10/11 13:11:53;;;;;;;19.20;5.03;;;16.50;99.90;;;;;;5100445;28;20325;-71